Time;durP1;ratioP1;P1;durP2;ratioP2;P2;SDS_P1;SDS_P2;PMS_P1;PMS_P2;Temp;Humidity;BMP_temperature;BMP_pressure;BME280_temperature;BME280_humidity;BME280_pressure;Samples;Min_cycle;Max_cycle;Signal;HPM_P1;HPM_P2
2022/09/10 00:01:37;;;;;;;28.90;16.55;;;13.90;99.90;;;;;;5060702;28;20755;-72
2022/09/10 00:04:09;;;;;;;30.17;16.48;;;13.90;99.90;;;;;;5054505;28;20186;-72
2022/09/10 00:06:37;;;;;;;27.77;16.33;;;13.90;99.90;;;;;;5050897;28;20033;-72
2022/09/10 00:09:04;;;;;;;26.00;15.90;;;13.90;99.90;;;;;;5055891;28;20284;-71
2022/09/10 00:11:30;;;;;;;25.30;15.40;;;13.80;99.90;;;;;;5046719;28;20030;-72
2022/09/10 00:13:58;;;;;;;34.40;17.63;;;13.80;99.90;;;;;;5054995;28;20033;-72
2022/09/10 00:16:24;;;;;;;31.17;16.60;;;13.80;99.90;;;;;;5056488;28;20033;-72
2022/09/10 00:18:50;;;;;;;28.63;16.70;;;13.80;99.90;;;;;;5052424;28;20044;-72
2022/09/10 00:21:19;;;;;;;25.80;16.02;;;13.80;99.90;;;;;;5053618;28;20045;-73
2022/09/10 00:23:45;;;;;;;31.02;17.25;;;13.80;99.90;;;;;;5053096;28;20397;-72
2022/09/10 00:26:24;;;;;;;29.08;17.02;;;13.60;99.90;;;;;;5057269;28;20181;-72
2022/09/10 00:28:51;;;;;;;34.63;17.35;;;13.70;99.90;;;;;;5053854;28;20403;-73
2022/09/10 00:31:18;;;;;;;33.30;17.40;;;13.60;99.90;;;;;;5053084;28;20051;-73
2022/09/10 00:33:44;;;;;;;31.85;16.63;;;13.60;99.90;;;;;;5052609;28;20446;-73
2022/09/10 00:36:14;;;;;;;27.90;16.63;;;13.60;99.90;;;;;;5058016;28;20532;-73
2022/09/10 00:38:39;;;;;;;32.85;17.60;;;13.50;99.90;;;;;;5053772;28;20044;-74
2022/09/10 00:41:07;;;;;;;28.88;17.13;;;13.50;99.90;;;;;;5051444;28;20029;-73
2022/09/10 00:43:56;;;;;;;30.13;17.20;;;13.60;99.90;;;;;;5052646;28;20055;-73
2022/09/10 00:46:37;;;;;;;33.97;17.80;;;13.60;99.90;;;;;;5065128;28;20049;-73
2022/09/10 00:49:13;;;;;;;29.58;16.85;;;13.60;99.90;;;;;;5053121;28;20667;-72
2022/09/10 00:51:39;;;;;;;40.17;19.30;;;13.60;99.90;;;;;;5051188;28;20465;-72
2022/09/10 00:54:06;;;;;;;39.97;20.42;;;13.80;99.90;;;;;;5055073;28;20436;-72
2022/09/10 00:56:33;;;;;;;40.92;20.70;;;13.80;99.90;;;;;;5057024;28;20056;-73
2022/09/10 00:59:00;;;;;;;36.92;19.63;;;13.70;99.90;;;;;;5050865;28;20063;-72
2022/09/10 01:01:26;;;;;;;34.80;20.17;;;13.80;99.90;;;;;;5048811;28;20072;-73
2022/09/10 01:03:53;;;;;;;42.90;20.85;;;13.90;99.90;;;;;;5054043;28;20513;-72
2022/09/10 01:06:18;;;;;;;35.38;19.48;;;13.80;99.90;;;;;;5056286;28;20056;-72
2022/09/10 01:08:44;;;;;;;41.53;21.05;;;13.80;99.90;;;;;;5053912;28;20067;-73
2022/09/10 01:11:27;;;;;;;35.33;20.00;;;14.00;99.90;;;;;;5050690;28;20458;-73
2022/09/10 01:14:04;;;;;;;35.65;20.52;;;14.00;99.90;;;;;;5066252;28;20052;-73
2022/09/10 01:16:57;;;;;;;41.42;20.50;;;14.00;99.90;;;;;;5051375;28;20404;-73
2022/09/10 01:20:03;;;;;;;39.03;21.38;;;13.90;99.90;;;;;;5053364;28;20465;-74
2022/09/10 01:23:04;;;;;;;44.30;22.67;;;14.10;99.90;;;;;;5052473;28;20040;-74
2022/09/10 01:26:12;;;;;;;45.67;22.30;;;14.10;99.90;;;;;;5030967;28;20094;-74
2022/09/10 01:29:04;;;;;;;41.75;21.52;;;14.20;99.90;;;;;;5052535;28;20182;-74
2022/09/10 01:31:44;;;;;;;40.15;21.35;;;14.20;99.90;;;;;;5060964;28;20090;-74
2022/09/10 01:34:26;;;;;;;41.85;22.42;;;14.20;99.90;;;;;;5054575;28;20450;-73
2022/09/10 01:36:57;;;;;;;41.50;22.05;;;14.20;99.90;;;;;;5064254;28;20044;-74
2022/09/10 01:39:23;;;;;;;49.85;23.70;;;14.20;99.90;;;;;;5049004;28;20044;-74
2022/09/10 01:41:51;;;;;;;41.42;22.25;;;14.00;99.90;;;;;;5053057;28;20344;-74
2022/09/10 01:44:49;;;;;;;53.97;23.58;;;14.00;99.90;;;;;;5053595;28;20049;-74
2022/09/10 01:47:30;;;;;;;34.85;19.98;;;14.00;99.90;;;;;;5053728;28;20032;-74
2022/09/10 01:50:33;;;;;;;39.13;21.25;;;14.10;99.90;;;;;;5063553;28;20103;-74
2022/09/10 01:53:01;;;;;;;;;;;14.00;99.90;;;;;;5048819;28;20163;-74
2022/09/10 01:55:37;;;;;;;32.42;20.10;;;13.90;99.90;;;;;;5054673;28;19924;-74
2022/09/10 01:58:09;;;;;;;39.08;21.33;;;13.90;99.90;;;;;;5045561;28;20060;-74
2022/09/10 02:00:37;;;;;;;45.37;22.30;;;14.10;99.90;;;;;;5050338;28;20056;-74
2022/09/10 02:03:16;;;;;;;46.08;22.70;;;13.90;99.90;;;;;;5047535;28;20067;-75
2022/09/10 02:05:44;;;;;;;39.30;21.45;;;14.00;99.90;;;;;;5052893;28;20040;-74
2022/09/10 02:08:22;;;;;;;33.97;20.08;;;14.00;99.90;;;;;;5047917;28;20041;-73
2022/09/10 02:10:58;;;;;;;49.80;22.95;;;14.10;99.90;;;;;;5064454;28;20044;-74
2022/09/10 02:13:24;;;;;;;44.80;22.75;;;13.90;99.90;;;;;;5057340;28;20041;-73
2022/09/10 02:15:53;;;;;;;37.03;21.13;;;13.90;99.90;;;;;;5063676;28;20855;-74
2022/09/10 02:18:20;;;;;;;39.05;21.20;;;14.00;99.90;;;;;;5049020;28;20037;-74
2022/09/10 02:20:47;;;;;;;35.95;20.77;;;14.10;99.90;;;;;;5055598;28;20084;-74
2022/09/10 02:23:17;;;;;;;49.92;22.73;;;14.00;99.90;;;;;;5050180;28;20526;-74
2022/09/10 02:25:43;;;;;;;43.35;21.85;;;14.10;99.90;;;;;;5059283;28;20037;-74
2022/09/10 02:28:09;;;;;;;40.10;20.90;;;14.10;99.90;;;;;;5052795;28;20124;-73
2022/09/10 02:30:35;;;;;;;36.58;20.90;;;14.10;99.90;;;;;;5057394;28;20115;-75
2022/09/10 02:33:00;;;;;;;49.67;23.50;;;14.10;99.90;;;;;;5046268;28;20904;-74
2022/09/10 02:35:27;;;;;;;43.13;21.98;;;14.20;99.90;;;;;;5056964;28;20518;-74
2022/09/10 02:37:52;;;;;;;34.38;19.70;;;14.30;99.90;;;;;;5051261;28;20083;-74
2022/09/10 02:40:18;;;;;;;33.60;20.27;;;14.10;99.90;;;;;;5054816;28;20046;-74
2022/09/10 02:42:45;;;;;;;36.35;20.67;;;14.30;99.90;;;;;;5060290;28;20471;-72
2022/09/10 02:45:12;;;;;;;44.17;21.25;;;14.30;99.90;;;;;;5063467;28;20040;-72
2022/09/10 02:47:38;;;;;;;45.50;21.40;;;14.30;99.90;;;;;;5049012;28;20129;-74
2022/09/10 02:50:05;;;;;;;35.55;19.88;;;14.30;99.90;;;;;;5053720;28;20154;-73
2022/09/10 02:52:32;;;;;;;43.20;21.38;;;14.30;99.90;;;;;;5058932;28;20054;-74
2022/09/10 02:54:58;;;;;;;44.15;21.70;;;14.20;99.90;;;;;;5053157;28;20084;-73
2022/09/10 02:57:24;;;;;;;42.75;21.83;;;14.40;99.90;;;;;;5052445;28;20354;-73
2022/09/10 02:59:51;;;;;;;41.50;21.55;;;14.40;99.90;;;;;;5047175;28;20077;-73
2022/09/10 03:02:17;;;;;;;43.00;21.42;;;14.20;99.90;;;;;;5066142;28;20106;-73
2022/09/10 03:04:43;;;;;;;37.70;20.08;;;14.30;99.90;;;;;;5054347;28;20517;-73
2022/09/10 03:07:08;;;;;;;45.03;21.20;;;14.30;99.90;;;;;;5052779;28;20041;-73
2022/09/10 03:09:34;;;;;;;37.30;20.80;;;14.30;99.90;;;;;;5057468;28;20086;-73
2022/09/10 03:12:00;;;;;;;41.17;20.70;;;14.40;99.90;;;;;;5052767;28;20774;-74
2022/09/10 03:14:27;;;;;;;37.03;20.33;;;14.40;99.90;;;;;;5055543;28;20036;-73
2022/09/10 03:16:52;;;;;;;40.95;21.42;;;14.60;99.90;;;;;;5056856;28;20120;-73
2022/09/10 03:19:20;;;;;;;36.92;20.58;;;14.50;99.90;;;;;;5056745;28;20133;-73
2022/09/10 03:21:46;;;;;;;42.63;21.25;;;14.50;99.90;;;;;;5055989;28;20063;-72
2022/09/10 03:24:11;;;;;;;40.55;20.33;;;14.70;99.90;;;;;;5055003;28;20036;-74
2022/09/10 03:26:37;;;;;;;40.92;20.08;;;14.60;99.90;;;;;;5052310;28;20350;-74
2022/09/10 03:29:03;;;;;;;37.97;19.55;;;14.60;99.90;;;;;;5054012;28;20056;-74
2022/09/10 03:31:29;;;;;;;40.63;20.52;;;14.70;99.90;;;;;;5053913;28;20063;-75
2022/09/10 03:33:56;;;;;;;39.40;20.17;;;14.60;99.90;;;;;;5072288;28;20283;-73
2022/09/10 03:36:22;;;;;;;42.25;20.13;;;14.70;99.90;;;;;;5059454;28;20048;-74
2022/09/10 03:38:47;;;;;;;46.92;20.23;;;14.60;99.90;;;;;;5049174;28;20537;-74
2022/09/10 03:41:13;;;;;;;41.67;20.35;;;14.70;99.90;;;;;;5056978;28;20068;-74
2022/09/10 03:43:39;;;;;;;36.55;19.38;;;14.60;99.90;;;;;;5053770;28;20044;-74
2022/09/10 03:46:05;;;;;;;39.75;20.08;;;14.70;99.90;;;;;;5055668;28;20052;-73
2022/09/10 03:48:31;;;;;;;38.60;20.05;;;14.70;99.90;;;;;;5069023;28;20463;-74
2022/09/10 03:50:56;;;;;;;39.30;20.35;;;14.70;99.90;;;;;;5054205;28;20049;-74
2022/09/10 03:53:22;;;;;;;43.60;20.95;;;14.80;99.90;;;;;;5054804;28;20099;-75
2022/09/10 03:55:49;;;;;;;40.00;20.08;;;14.80;99.90;;;;;;5053878;28;20051;-74
2022/09/10 03:58:16;;;;;;;41.72;20.60;;;14.70;99.90;;;;;;5046003;28;20045;-74
2022/09/10 04:00:42;;;;;;;41.50;21.40;;;14.80;99.90;;;;;;5052695;28;20392;-74
2022/09/10 04:03:09;;;;;;;38.40;19.95;;;14.70;99.90;;;;;;5067908;28;20036;-74
2022/09/10 04:05:39;;;;;;;39.60;19.95;;;14.70;99.90;;;;;;5052213;28;20037;-73
2022/09/10 04:08:06;;;;;;;42.00;21.20;;;14.80;99.90;;;;;;5071358;28;20047;-73
2022/09/10 04:10:32;;;;;;;48.25;20.10;;;14.80;99.90;;;;;;5051625;28;20093;-73
2022/09/10 04:12:57;;;;;;;37.63;20.02;;;14.80;99.90;;;;;;5053263;28;20053;-74
2022/09/10 04:15:24;;;;;;;41.20;21.05;;;14.80;99.90;;;;;;5048721;28;20515;-73
2022/09/10 04:17:50;;;;;;;51.60;21.27;;;14.70;99.90;;;;;;5049686;28;20038;-72
2022/09/10 04:20:22;;;;;;;40.70;20.58;;;14.70;99.90;;;;;;5049407;28;20051;-73
2022/09/10 04:22:50;;;;;;;41.80;20.13;;;14.70;99.90;;;;;;5053705;28;20033;-73
2022/09/10 04:25:17;;;;;;;49.00;21.52;;;14.70;99.90;;;;;;5050063;28;20119;-73
2022/09/10 04:27:43;;;;;;;39.97;20.55;;;14.70;99.90;;;;;;5054245;28;20036;-73
2022/09/10 04:30:10;;;;;;;36.40;19.60;;;14.70;99.90;;;;;;5043524;28;20509;-73
2022/09/10 04:32:36;;;;;;;34.00;18.55;;;14.60;99.90;;;;;;5036961;28;20043;-73
2022/09/10 04:35:01;;;;;;;39.63;20.15;;;14.70;99.90;;;;;;5046105;28;20068;-73
2022/09/10 04:37:28;;;;;;;39.85;19.83;;;14.70;99.90;;;;;;5054655;28;20411;-73
2022/09/10 04:39:53;;;;;;;33.97;19.05;;;14.70;99.90;;;;;;5053800;28;20131;-73
2022/09/10 04:42:19;;;;;;;37.85;18.65;;;14.50;99.90;;;;;;5051776;28;20115;-73
2022/09/10 04:44:45;;;;;;;44.60;19.95;;;14.50;99.90;;;;;;5041957;28;20043;-73
2022/09/10 04:47:11;;;;;;;38.08;19.55;;;14.60;99.90;;;;;;5026958;28;20399;-74
2022/09/10 04:49:37;;;;;;;35.38;18.77;;;14.60;99.90;;;;;;5053644;28;21407;-73
2022/09/10 04:52:03;;;;;;;33.83;18.70;;;14.60;99.90;;;;;;5044293;28;20347;-73
2022/09/10 04:54:28;;;;;;;30.77;17.73;;;14.60;99.90;;;;;;5051759;28;20047;-74
2022/09/10 04:56:54;;;;;;;36.10;17.83;;;14.60;99.90;;;;;;5049180;28;20499;-73
2022/09/10 04:59:20;;;;;;;37.72;19.80;;;14.50;99.90;;;;;;5053151;28;20483;-73
2022/09/10 05:01:49;;;;;;;32.80;18.60;;;14.50;99.90;;;;;;5047475;28;20465;-74
2022/09/10 05:04:15;;;;;;;35.28;18.67;;;14.50;99.90;;;;;;5060538;28;20368;-73
2022/09/10 05:06:41;;;;;;;35.92;18.58;;;14.50;99.90;;;;;;5052373;28;20053;-74
2022/09/10 05:09:07;;;;;;;40.85;19.30;;;14.60;99.90;;;;;;5037590;28;20041;-74
2022/09/10 05:11:33;;;;;;;33.53;18.08;;;14.70;99.90;;;;;;5047938;28;20049;-74
2022/09/10 05:13:58;;;;;;;41.17;20.35;;;14.60;99.90;;;;;;5046141;28;20037;-73
2022/09/10 05:16:24;;;;;;;37.20;18.95;;;14.50;99.90;;;;;;5059239;28;20045;-74
2022/09/10 05:18:49;;;;;;;37.55;19.15;;;14.50;99.90;;;;;;5049322;28;20041;-74
2022/09/10 05:21:17;;;;;;;37.05;18.13;;;14.50;99.90;;;;;;5049679;28;20112;-72
2022/09/10 05:23:42;;;;;;;33.92;18.05;;;14.60;99.90;;;;;;5048875;28;20052;-74
2022/09/10 05:26:08;;;;;;;37.17;18.67;;;14.60;99.90;;;;;;5045061;28;20399;-72
2022/09/10 05:28:34;;;;;;;36.90;18.55;;;14.50;99.90;;;;;;5048054;28;20055;-74
2022/09/10 05:31:00;;;;;;;32.22;17.52;;;14.60;99.90;;;;;;5051252;28;20033;-73
2022/09/10 05:33:26;;;;;;;31.35;17.10;;;14.50;99.90;;;;;;5055816;28;20053;-73
2022/09/10 05:35:51;;;;;;;41.72;19.40;;;14.50;99.90;;;;;;5062338;28;20063;-73
2022/09/10 05:38:17;;;;;;;39.63;19.40;;;14.60;99.90;;;;;;5056292;28;20274;-73
2022/09/10 05:40:42;;;;;;;34.65;19.05;;;14.60;99.90;;;;;;5054204;28;20329;-74
2022/09/10 05:43:09;;;;;;;31.50;17.95;;;14.50;99.90;;;;;;5075728;28;20024;-73
2022/09/10 05:45:34;;;;;;;36.47;18.52;;;14.60;99.90;;;;;;5052791;28;20047;-73
2022/09/10 05:48:00;;;;;;;35.88;18.90;;;14.50;99.90;;;;;;5056515;28;20480;-74
2022/09/10 05:50:27;;;;;;;34.33;18.42;;;14.60;99.90;;;;;;5055765;28;20056;-74
2022/09/10 05:52:52;;;;;;;35.75;18.52;;;14.60;99.90;;;;;;5057378;28;20040;-74
2022/09/10 05:55:18;;;;;;;34.85;18.70;;;14.70;99.90;;;;;;5057633;28;20044;-74
2022/09/10 05:57:44;;;;;;;36.47;19.00;;;14.70;99.90;;;;;;5052763;28;20053;-73
2022/09/10 06:00:09;;;;;;;34.95;18.77;;;14.70;99.90;;;;;;5055267;28;20141;-73
2022/09/10 06:02:36;;;;;;;37.85;19.80;;;14.80;99.90;;;;;;5062377;28;20044;-74
2022/09/10 06:05:01;;;;;;;37.47;20.55;;;14.70;99.90;;;;;;5072045;28;20037;-72
2022/09/10 06:07:28;;;;;;;39.35;20.42;;;14.80;99.90;;;;;;5058492;28;20375;-74
2022/09/10 06:09:55;;;;;;;38.10;19.92;;;14.80;99.90;;;;;;5056463;28;20067;-74
2022/09/10 06:12:20;;;;;;;40.88;19.58;;;14.70;99.90;;;;;;5059606;28;20098;-73
2022/09/10 06:14:46;;;;;;;45.15;21.25;;;14.90;99.90;;;;;;5048362;28;20465;-73
2022/09/10 06:17:12;;;;;;;40.95;20.38;;;15.00;99.90;;;;;;5058322;28;20044;-74
2022/09/10 06:19:38;;;;;;;44.47;20.83;;;14.90;99.90;;;;;;5037448;28;20036;-74
2022/09/10 06:22:04;;;;;;;40.85;20.70;;;14.90;99.90;;;;;;5046574;28;20128;-73
2022/09/10 06:24:30;;;;;;;43.78;20.77;;;15.10;99.90;;;;;;5053658;28;20040;-73
2022/09/10 06:26:56;;;;;;;44.30;20.05;;;15.10;99.90;;;;;;5051479;28;20052;-74
2022/09/10 06:29:22;;;;;;;42.63;21.38;;;15.20;99.90;;;;;;5071484;28;20083;-74
2022/09/10 06:31:48;;;;;;;39.42;21.13;;;15.20;99.90;;;;;;5052963;28;20071;-74
2022/09/10 06:34:17;;;;;;;41.50;21.95;;;15.30;99.90;;;;;;5058590;28;20441;-73
2022/09/10 06:36:44;;;;;;;49.47;22.90;;;15.30;99.90;;;;;;5054733;28;20041;-74
2022/09/10 06:39:10;;;;;;;45.45;21.92;;;15.20;99.90;;;;;;5068819;28;20082;-74
2022/09/10 06:41:35;;;;;;;42.40;21.13;;;15.20;99.90;;;;;;5057104;28;20036;-73
2022/09/10 06:44:01;;;;;;;37.85;21.10;;;15.30;99.90;;;;;;5050411;28;20044;-73
2022/09/10 06:46:27;;;;;;;39.05;21.52;;;15.40;99.90;;;;;;5057283;28;20133;-73
2022/09/10 06:48:52;;;;;;;40.20;21.92;;;15.50;99.90;;;;;;5052160;28;20098;-72
2022/09/10 06:51:18;;;;;;;41.30;21.25;;;15.50;99.90;;;;;;5053603;28;20080;-75
2022/09/10 06:53:46;;;;;;;44.47;21.75;;;15.50;99.90;;;;;;5050457;28;20044;-74
2022/09/10 06:56:13;;;;;;;39.38;22.05;;;15.50;99.90;;;;;;5051930;28;20093;-74
2022/09/10 06:58:40;;;;;;;43.38;22.00;;;15.50;99.90;;;;;;5054873;28;20059;-75
2022/09/10 07:01:16;;;;;;;41.72;21.77;;;15.50;99.90;;;;;;5071037;28;20087;-75
2022/09/10 07:03:42;;;;;;;43.67;22.48;;;15.50;99.90;;;;;;5058779;28;20055;-75
2022/09/10 07:06:12;;;;;;;44.90;21.42;;;15.50;99.90;;;;;;5068895;28;20036;-75
2022/09/10 07:08:38;;;;;;;44.88;23.38;;;15.60;99.90;;;;;;5054069;28;20047;-75
2022/09/10 07:11:06;;;;;;;40.78;21.30;;;15.70;99.90;;;;;;5051895;28;20044;-75
2022/09/10 07:13:33;;;;;;;47.83;21.45;;;15.60;99.90;;;;;;5073380;28;20442;-75
2022/09/10 07:15:59;;;;;;;43.40;22.02;;;15.60;99.90;;;;;;5071542;28;20041;-74
2022/09/10 07:18:26;;;;;;;37.92;21.27;;;15.70;99.90;;;;;;5056252;28;20426;-76
2022/09/10 07:20:51;;;;;;;42.53;21.65;;;15.70;99.90;;;;;;5053487;28;20151;-76
2022/09/10 07:23:19;;;;;;;40.45;21.05;;;15.80;99.90;;;;;;5053678;28;20151;-76
2022/09/10 07:25:46;;;;;;;42.88;22.98;;;15.80;99.90;;;;;;5049161;28;20165;-76
2022/09/10 07:28:14;;;;;;;42.22;20.77;;;15.80;99.90;;;;;;5040168;28;20058;-76
2022/09/10 07:30:41;;;;;;;38.30;21.67;;;16.00;99.90;;;;;;5051875;28;20049;-76
2022/09/10 07:33:07;;;;;;;41.10;22.25;;;15.90;99.90;;;;;;5034392;28;20385;-72
2022/09/10 07:35:35;;;;;;;40.35;21.55;;;16.10;99.90;;;;;;5033618;28;20075;-77
2022/09/10 07:38:01;;;;;;;38.20;21.33;;;16.20;99.90;;;;;;5024465;28;20041;-77
2022/09/10 07:40:27;;;;;;;40.42;21.42;;;16.20;99.90;;;;;;5039916;28;20644;-76
2022/09/10 07:42:54;;;;;;;37.50;20.40;;;16.40;99.90;;;;;;5046393;28;20516;-74
2022/09/10 07:45:20;;;;;;;36.42;19.88;;;16.50;99.90;;;;;;5057974;28;20040;-73
2022/09/10 07:47:47;;;;;;;34.30;19.92;;;16.50;99.90;;;;;;5055132;28;20041;-77
2022/09/10 07:50:13;;;;;;;38.08;20.25;;;16.60;99.90;;;;;;5056215;28;20094;-76
2022/09/10 07:52:40;;;;;;;34.83;18.27;;;16.80;99.90;;;;;;5055745;28;20084;-74
2022/09/10 07:55:07;;;;;;;28.50;16.42;;;16.80;99.90;;;;;;5058770;28;20036;-76
2022/09/10 07:57:39;;;;;;;26.38;15.95;;;16.90;99.90;;;;;;5051748;28;20037;-76
2022/09/10 08:00:11;;;;;;;25.70;14.82;;;17.00;99.90;;;;;;5054635;28;20131;-75
2022/09/10 08:02:38;;;;;;;20.30;12.82;;;17.00;99.90;;;;;;5056817;28;20132;-75
2022/09/10 08:05:04;;;;;;;19.70;13.13;;;17.00;99.90;;;;;;5054741;28;20118;-75
2022/09/10 08:07:30;;;;;;;21.05;13.63;;;17.10;99.90;;;;;;5049350;28;20048;-73
2022/09/10 08:09:56;;;;;;;21.92;13.50;;;17.10;99.90;;;;;;5044950;28;20033;-73
2022/09/10 08:12:24;;;;;;;22.58;13.25;;;17.20;99.90;;;;;;5058686;28;20060;-72
2022/09/10 08:14:51;;;;;;;19.98;13.07;;;17.20;99.90;;;;;;5040163;28;20652;-72
2022/09/10 08:17:17;;;;;;;21.63;13.85;;;17.10;99.90;;;;;;5042965;28;20033;-71
2022/09/10 08:19:43;;;;;;;23.25;14.27;;;17.10;99.90;;;;;;5050675;28;20040;-73
2022/09/10 08:22:10;;;;;;;23.70;14.45;;;17.10;99.90;;;;;;5053899;28;20044;-72
2022/09/10 08:24:35;;;;;;;21.40;13.75;;;17.10;99.90;;;;;;5059149;28;20037;-74
2022/09/10 08:27:01;;;;;;;24.42;14.48;;;17.20;99.90;;;;;;5055082;28;20040;-73
2022/09/10 08:29:27;;;;;;;22.40;13.52;;;17.20;99.90;;;;;;5053117;28;20079;-73
2022/09/10 08:31:53;;;;;;;20.63;12.68;;;17.10;99.90;;;;;;5053576;28;20032;-72
2022/09/10 08:34:19;;;;;;;20.60;13.63;;;17.10;99.90;;;;;;5041920;28;20082;-71
2022/09/10 08:36:45;;;;;;;18.50;12.55;;;17.30;99.90;;;;;;5041691;28;20049;-72
2022/09/10 08:39:11;;;;;;;20.10;12.40;;;17.20;99.90;;;;;;5054075;28;20048;-71
2022/09/10 08:41:40;;;;;;;20.77;12.50;;;17.30;99.90;;;;;;5053825;28;20124;-70
2022/09/10 08:44:08;;;;;;;20.42;11.40;;;17.50;99.90;;;;;;5060301;28;20072;-70
2022/09/10 08:46:43;;;;;;;17.63;10.95;;;17.50;99.90;;;;;;5044719;28;20041;-71
2022/09/10 08:49:40;;;;;;;16.15;10.07;;;17.50;99.90;;;;;;5061262;28;20082;-70
2022/09/10 08:52:25;;;;;;;16.63;10.35;;;17.50;99.90;;;;;;5034608;28;20103;-72
2022/09/10 08:55:03;;;;;;;19.42;10.98;;;17.50;99.90;;;;;;5063141;28;20098;-72
2022/09/10 08:57:38;;;;;;;20.05;10.70;;;17.80;99.90;;;;;;5038395;28;20042;-73
2022/09/10 09:00:09;;;;;;;16.42;11.20;;;17.80;99.90;;;;;;5035526;28;20052;-72
2022/09/10 09:03:12;;;;;;;16.30;10.90;;;17.80;99.90;;;;;;5050988;28;20052;-71
2022/09/10 09:05:48;;;;;;;13.68;9.30;;;17.80;99.90;;;;;;5052786;28;20064;-71
2022/09/10 09:08:28;;;;;;;17.02;10.57;;;17.80;99.90;;;;;;5054424;28;20041;-72
2022/09/10 09:11:19;;;;;;;14.02;10.18;;;17.90;99.90;;;;;;5054377;28;20044;-71
2022/09/10 09:13:53;;;;;;;16.85;11.82;;;18.00;99.90;;;;;;5043963;28;20041;-74
2022/09/10 09:16:25;;;;;;;19.10;11.30;;;18.00;99.90;;;;;;5037299;28;20396;-72
2022/09/10 09:19:04;;;;;;;19.77;12.60;;;18.10;99.90;;;;;;5043447;28;20052;-71
2022/09/10 09:21:50;;;;;;;17.75;12.55;;;18.20;99.90;;;;;;5051402;28;20810;-70
2022/09/10 09:24:24;;;;;;;19.13;12.65;;;18.10;99.90;;;;;;5044762;28;20028;-71
2022/09/10 09:26:53;;;;;;;19.05;12.68;;;18.30;99.90;;;;;;5041699;28;20046;-70
2022/09/10 09:29:42;;;;;;;18.50;12.05;;;18.30;99.90;;;;;;5045741;28;20479;-71
2022/09/10 09:32:12;;;;;;;19.70;11.73;;;18.40;99.90;;;;;;5051594;28;20083;-71
2022/09/10 09:34:49;;;;;;;16.90;11.65;;;18.50;99.90;;;;;;5043439;28;20087;-72
2022/09/10 09:37:28;;;;;;;17.38;10.10;;;18.50;99.90;;;;;;5039955;28;20029;-71
2022/09/10 09:40:03;;;;;;;19.00;11.25;;;18.70;99.90;;;;;;5052345;28;20088;-71
2022/09/10 09:42:47;;;;;;;16.83;11.70;;;18.70;99.90;;;;;;5051646;28;20097;-66
2022/09/10 09:45:35;;;;;;;18.13;11.38;;;18.90;99.90;;;;;;5054739;28;20450;-69
2022/09/10 09:48:01;;;;;;;16.48;10.52;;;19.00;99.90;;;;;;5063848;28;20094;-73
2022/09/10 09:50:30;;;;;;;18.85;11.05;;;19.10;99.90;;;;;;5043233;28;20393;-71
2022/09/10 09:52:55;;;;;;;15.40;10.98;;;19.20;99.90;;;;;;5048549;28;20482;-70
2022/09/10 09:55:33;;;;;;;13.60;8.23;;;19.30;99.90;;;;;;5047453;28;20040;-68
2022/09/10 09:58:21;;;;;;;13.68;8.93;;;19.40;99.90;;;;;;5060043;28;20029;-69
2022/09/10 10:00:51;;;;;;;12.70;9.35;;;19.70;99.90;;;;;;5042928;28;20033;-66
2022/09/10 10:03:25;;;;;;;11.75;6.78;;;19.80;99.90;;;;;;5054381;28;20112;-70
2022/09/10 10:06:00;;;;;;;13.40;8.95;;;19.80;99.90;;;;;;5050155;28;20106;-66
2022/09/10 10:08:33;;;;;;;12.45;9.80;;;19.80;99.90;;;;;;5042710;28;20488;-70
2022/09/10 10:10:59;;;;;;;14.05;9.50;;;19.70;99.90;;;;;;5046594;28;20425;-68
2022/09/10 10:13:36;;;;;;;14.25;7.25;;;19.80;99.90;;;;;;5042043;28;20539;-71
2022/09/10 10:16:13;;;;;;;9.70;6.47;;;19.80;99.90;;;;;;5051454;28;20037;-70
2022/09/10 10:18:41;;;;;;;16.02;7.80;;;19.80;99.90;;;;;;5047843;28;20482;-71
2022/09/10 10:21:28;;;;;;;13.75;7.95;;;19.80;99.90;;;;;;5036986;28;20037;-72
2022/09/10 10:23:53;;;;;;;11.27;7.68;;;19.80;99.90;;;;;;5035199;28;20507;-68
2022/09/10 10:26:19;;;;;;;9.82;6.55;;;19.80;99.90;;;;;;5043539;28;20072;-72
2022/09/10 10:29:06;;;;;;;9.65;7.00;;;19.80;99.90;;;;;;5053438;28;20083;-70
2022/09/10 10:31:42;;;;;;;11.80;7.57;;;19.70;99.90;;;;;;5064675;28;20036;-73
2022/09/10 10:34:44;;;;;;;12.68;7.80;;;19.60;99.90;;;;;;5048946;28;21267;-70
2022/09/10 10:37:28;;;;;;;12.02;6.80;;;19.50;99.90;;;;;;5044683;28;20337;-72
2022/09/10 10:40:29;;;;;;;10.25;7.30;;;19.40;99.90;;;;;;5048083;28;20049;-68
2022/09/10 10:42:54;;;;;;;14.75;7.07;;;19.30;99.90;;;;;;5029357;28;20086;-70
2022/09/10 10:45:26;;;;;;;11.93;6.63;;;19.30;99.90;;;;;;5054522;28;20486;-69
2022/09/10 10:48:16;;;;;;;9.20;7.38;;;19.20;99.90;;;;;;5049987;28;20068;-74
2022/09/10 10:51:01;;;;;;;11.30;8.02;;;19.30;99.90;;;;;;5040153;28;20049;-67
2022/09/10 10:54:19;;;;;;;10.40;7.18;;;19.50;99.90;;;;;;5030245;28;20053;-72
2022/09/10 10:57:10;;;;;;;15.02;8.27;;;19.60;99.90;;;;;;5027291;28;20346;-69
2022/09/10 10:59:53;;;;;;;13.35;7.57;;;19.60;99.90;;;;;;5049826;28;20119;-70
2022/09/10 11:02:35;;;;;;;10.35;7.47;;;19.70;99.90;;;;;;5043148;28;20358;-69
2022/09/10 11:05:17;;;;;;;12.30;7.47;;;19.90;99.90;;;;;;5050605;28;20037;-71
2022/09/10 11:07:43;;;;;;;;;;;20.00;99.90;;;;;;5051138;28;20047;-72
2022/09/10 11:10:28;;;;;;;10.75;7.43;;;19.90;99.90;;;;;;5039283;28;19920;-70
2022/09/10 11:13:09;;;;;;;10.02;6.15;;;19.80;99.90;;;;;;5043801;28;20080;-69
2022/09/10 11:16:08;;;;;;;10.52;7.18;;;19.80;99.90;;;;;;5049897;28;20429;-70
2022/09/10 11:18:47;;;;;;;8.98;5.95;;;19.80;99.90;;;;;;5031986;28;20047;-67
2022/09/10 11:21:45;;;;;;;7.55;4.60;;;19.80;99.90;;;;;;5064697;28;20037;-66
2022/09/10 11:24:17;;;;;;;10.27;5.40;;;19.90;99.90;;;;;;5048075;28;20092;-72
2022/09/10 11:26:43;;;;;;;7.90;5.20;;;20.00;99.90;;;;;;5045927;28;20072;-67
2022/09/10 11:29:35;;;;;;;8.43;5.15;;;20.00;99.90;;;;;;5048986;28;20123;-69
2022/09/10 11:32:21;;;;;;;7.25;4.47;;;20.10;99.90;;;;;;5059063;28;20046;-70
2022/09/10 11:34:55;;;;;;;8.07;5.03;;;20.10;99.90;;;;;;5059451;28;20186;-69
2022/09/10 11:37:43;;;;;;;9.70;5.00;;;20.30;99.90;;;;;;5057693;28;20055;-69
2022/09/10 11:40:24;;;;;;;9.35;5.13;;;20.40;99.90;;;;;;5048475;28;20100;-69
2022/09/10 11:42:55;;;;;;;8.48;5.90;;;20.60;99.90;;;;;;5046552;28;20048;-68
2022/09/10 11:45:59;;;;;;;9.07;6.38;;;20.80;99.90;;;;;;5050886;28;20033;-68
2022/09/10 11:49:03;;;;;;;6.65;4.13;;;21.00;99.90;;;;;;5015658;28;20076;-70
2022/09/10 11:51:38;;;;;;;5.75;4.38;;;21.10;99.90;;;;;;5004551;28;20454;-68
2022/09/10 11:54:08;;;;;;;13.07;6.85;;;21.10;99.90;;;;;;5040245;28;20545;-69
2022/09/10 11:57:05;;;;;;;10.68;7.15;;;21.00;99.90;;;;;;5052885;28;20135;-70
2022/09/10 11:59:55;;;;;;;14.35;7.05;;;20.80;99.90;;;;;;5052938;28;20680;-68
2022/09/10 12:03:05;;;;;;;11.40;7.88;;;20.60;99.90;;;;;;5067275;28;20053;-71
2022/09/10 12:05:47;;;;;;;13.23;7.18;;;20.40;99.90;;;;;;5068543;28;20107;-72
2022/09/10 12:08:23;;;;;;;10.15;6.82;;;20.20;99.90;;;;;;5075628;28;20059;-70
2022/09/10 12:11:07;;;;;;;17.25;7.60;;;20.00;99.90;;;;;;5054576;28;20044;-70
2022/09/10 12:13:40;;;;;;;10.65;6.88;;;20.00;99.90;;;;;;5067259;28;20044;-68
2022/09/10 12:16:28;;;;;;;10.73;7.10;;;19.90;99.90;;;;;;5049290;28;20387;-68
2022/09/10 12:18:56;;;;;;;10.23;7.32;;;19.90;99.90;;;;;;5045992;28;20048;-67
2022/09/10 12:21:53;;;;;;;11.27;6.80;;;19.90;99.90;;;;;;5041038;28;20041;-69
2022/09/10 12:24:32;;;;;;;10.05;6.43;;;19.80;99.90;;;;;;5047962;28;20572;-68
2022/09/10 12:26:59;;;;;;;12.35;6.80;;;19.80;99.90;;;;;;5048603;28;20487;-71
2022/09/10 12:29:28;;;;;;;10.70;6.40;;;19.80;99.90;;;;;;5046576;28;20116;-69
2022/09/10 12:32:12;;;;;;;9.38;6.47;;;19.80;99.90;;;;;;5045642;28;20071;-70
2022/09/10 12:34:39;;;;;;;11.23;7.03;;;19.80;99.90;;;;;;5050515;28;20033;-68
2022/09/10 12:37:04;;;;;;;10.40;6.95;;;19.80;99.90;;;;;;5048264;28;20132;-68
2022/09/10 12:39:31;;;;;;;10.60;6.75;;;19.80;99.90;;;;;;5048530;28;20148;-70
2022/09/10 12:42:25;;;;;;;12.43;6.95;;;19.90;99.90;;;;;;5047391;28;20048;-69
2022/09/10 12:44:51;;;;;;;11.52;7.15;;;20.00;99.90;;;;;;5034795;28;20045;-68
2022/09/10 12:47:16;;;;;;;11.20;7.35;;;20.10;99.90;;;;;;5036363;28;20499;-69
2022/09/10 12:49:51;;;;;;;8.10;6.20;;;20.10;99.90;;;;;;5059921;28;20045;-68
2022/09/10 12:52:38;;;;;;;10.02;6.40;;;20.20;99.90;;;;;;5047048;28;20396;-70
2022/09/10 12:55:32;;;;;;;11.05;6.43;;;20.30;99.90;;;;;;5056855;28;20395;-69